Okoboji, IA (51355)

12:32 AM CST on February 11, 2016 (GMT -0600)
Milford Fire Station | | Change Station
CLOSE
Current Station
Personal Weather Station
Location: Milford, IA
Elevation: 1443 ft
Nearby Weather Stations

Elev 1443 ft 43.33 °N, 95.15 °W | Updated 49 seconds ago

Overcast
Overcast
10.3 °F
Feels Like -2 °F
N
8.0
Wind Variable Wind from North
Gusts 8.0 mph

Today
High -- | Low -- °F
--% Chance of Precip.
Yesterday
High -- | Low -- °F
Precip. -- in
Pressure 30.31 in
Visibility 10.0 miles
Clouds Mostly Cloudy 4000 ft
Overcast 5000 ft
Windchill -2 °F
Dew Point 5 °F
Humidity 78%
Rainfall 0.00 in
Snow Depth Not available.
7:24 AM 5:45 PM
Waxing Crescent, 10% visible
METAR KSPW 110553Z AUTO 05007KT 10SM BKN040 OVC050 M12/M16 A3022 RMK AO2 SLP262 T11171161 11106 21117 410721117 51012
Pressure 30.31 in
Visibility 10.0 miles
Clouds Mostly Cloudy 4000 ft
Overcast 5000 ft
Windchill -2 °F
Dew Point 5 °F
Humidity 78%
Rainfall 0.00 in
Snow Depth Not available.
7:24 AM 5:45 PM
Waxing Crescent, 10% visible
METAR KSPW 110553Z AUTO 05007KT 10SM BKN040 OVC050 M12/M16 A3022 RMK AO2 SLP262 T11171161 11106 21117 410721117 51012

10-Day Weather Forecast

Almanac

Astronomy

Feb. 11, 2016 Rise Set
Actual Time
Civil Twilight
Nautical Twilight
Astronomical Twilight
Moon
Length of Visible Light
Length of Day
Tomorrow will be .
, % of the Moon is Illuminated

Today's Extremes

State Highs State Lows

Community

WunderPhotos

Upload Photos

1,892,028 photos uploaded!

WunderBlog® & News

Nearby

Air Quality

  Air Quality AQ Index Pollutant
Not available.

Snow Depth

Station Depth Elevation

Earthquake Activity

City Distance Mag. Time & Date
Minimum magnitude displayed is 2.5.

Coastal Water Temperatures

Place Temperature

Stations

Nearby Weather Stations

Station Location Temp. Windchill Dew Point Humidity Wind Precip. Elev Updated Type
                   

Watches & Warnings

There are currently no watches in effect.